sensor_id;sensor_type;location;lat;lon;timestamp;P1;durP1;ratioP1;P2;durP2;ratioP2
15553;SDS011;7878;44.632;10.942;2023-02-26T00:00:09;62.10;;;37.93;;
15553;SDS011;7878;44.632;10.942;2023-02-26T00:02:39;61.70;;;37.63;;
15553;SDS011;7878;44.632;10.942;2023-02-26T00:05:06;67.57;;;38.50;;
15553;SDS011;7878;44.632;10.942;2023-02-26T00:07:32;59.33;;;37.33;;
15553;SDS011;7878;44.632;10.942;2023-02-26T00:09:58;60.17;;;37.77;;
15553;SDS011;7878;44.632;10.942;2023-02-26T00:12:25;60.57;;;39.43;;
15553;SDS011;7878;44.632;10.942;2023-02-26T00:14:51;62.87;;;38.47;;
15553;SDS011;7878;44.632;10.942;2023-02-26T00:20:03;52.57;;;37.40;;
15553;SDS011;7878;44.632;10.942;2023-02-26T00:22:30;63.63;;;38.17;;
15553;SDS011;7878;44.632;10.942;2023-02-26T00:24:56;65.10;;;38.80;;
15553;SDS011;7878;44.632;10.942;2023-02-26T00:27:21;68.20;;;38.90;;
15553;SDS011;7878;44.632;10.942;2023-02-26T00:29:47;63.10;;;37.93;;
15553;SDS011;7878;44.632;10.942;2023-02-26T00:32:14;64.37;;;37.27;;
15553;SDS011;7878;44.632;10.942;2023-02-26T00:34:42;58.50;;;37.07;;
15553;SDS011;7878;44.632;10.942;2023-02-26T00:37:13;62.03;;;37.10;;
15553;SDS011;7878;44.632;10.942;2023-02-26T00:42:10;59.33;;;37.03;;
15553;SDS011;7878;44.632;10.942;2023-02-26T00:44:37;59.20;;;37.70;;
15553;SDS011;7878;44.632;10.942;2023-02-26T00:55:28;60.87;;;38.83;;
15553;SDS011;7878;44.632;10.942;2023-02-26T00:57:54;66.47;;;37.60;;
15553;SDS011;7878;44.632;10.942;2023-02-26T01:00:20;58.20;;;37.23;;
15553;SDS011;7878;44.632;10.942;2023-02-26T01:02:46;58.13;;;40.10;;
15553;SDS011;7878;44.632;10.942;2023-02-26T01:05:13;59.17;;;38.83;;
15553;SDS011;7878;44.632;10.942;2023-02-26T01:10:26;57.67;;;40.17;;
15553;SDS011;7878;44.632;10.942;2023-02-26T01:12:53;65.30;;;41.13;;
15553;SDS011;7878;44.632;10.942;2023-02-26T01:15:20;67.73;;;41.10;;
15553;SDS011;7878;44.632;10.942;2023-02-26T01:18:04;70.17;;;44.03;;
15553;SDS011;7878;44.632;10.942;2023-02-26T01:20:37;67.87;;;44.33;;
15553;SDS011;7878;44.632;10.942;2023-02-26T01:23:15;66.90;;;43.33;;
15553;SDS011;7878;44.632;10.942;2023-02-26T01:28:25;78.83;;;44.57;;
15553;SDS011;7878;44.632;10.942;2023-02-26T01:30:52;64.93;;;43.50;;
15553;SDS011;7878;44.632;10.942;2023-02-26T01:33:26;72.70;;;45.83;;
15553;SDS011;7878;44.632;10.942;2023-02-26T01:36:07;70.03;;;43.57;;
15553;SDS011;7878;44.632;10.942;2023-02-26T01:38:44;77.80;;;44.77;;
15553;SDS011;7878;44.632;10.942;2023-02-26T01:46:57;72.17;;;43.97;;
15553;SDS011;7878;44.632;10.942;2023-02-26T01:49:30;69.90;;;45.60;;
15553;SDS011;7878;44.632;10.942;2023-02-26T01:52:00;61.77;;;42.90;;
15553;SDS011;7878;44.632;10.942;2023-02-26T01:56:59;70.00;;;45.57;;
15553;SDS011;7878;44.632;10.942;2023-02-26T01:59:28;70.30;;;45.37;;
15553;SDS011;7878;44.632;10.942;2023-02-26T02:01:55;68.73;;;42.97;;
15553;SDS011;7878;44.632;10.942;2023-02-26T02:04:23;71.47;;;43.50;;
15553;SDS011;7878;44.632;10.942;2023-02-26T02:06:49;66.90;;;43.43;;
15553;SDS011;7878;44.632;10.942;2023-02-26T02:09:16;68.63;;;44.60;;
15553;SDS011;7878;44.632;10.942;2023-02-26T02:11:46;67.60;;;45.27;;
15553;SDS011;7878;44.632;10.942;2023-02-26T02:14:43;69.87;;;44.17;;
15553;SDS011;7878;44.632;10.942;2023-02-26T02:20:18;73.03;;;46.70;;
15553;SDS011;7878;44.632;10.942;2023-02-26T02:25:45;76.27;;;46.97;;
15553;SDS011;7878;44.632;10.942;2023-02-26T02:36:18;78.27;;;49.07;;
15553;SDS011;7878;44.632;10.942;2023-02-26T02:39:17;79.03;;;50.00;;
15553;SDS011;7878;44.632;10.942;2023-02-26T02:41:54;80.07;;;49.27;;
15553;SDS011;7878;44.632;10.942;2023-02-26T02:44:25;78.23;;;48.83;;
15553;SDS011;7878;44.632;10.942;2023-02-26T02:46:54;76.40;;;49.27;;
15553;SDS011;7878;44.632;10.942;2023-02-26T02:49:33;78.03;;;48.53;;
15553;SDS011;7878;44.632;10.942;2023-02-26T02:52:25;79.97;;;50.73;;
15553;SDS011;7878;44.632;10.942;2023-02-26T02:55:09;82.77;;;53.10;;
15553;SDS011;7878;44.632;10.942;2023-02-26T02:57:46;83.60;;;51.07;;
15553;SDS011;7878;44.632;10.942;2023-02-26T03:00:15;88.70;;;53.23;;
15553;SDS011;7878;44.632;10.942;2023-02-26T03:02:58;92.33;;;56.93;;
15553;SDS011;7878;44.632;10.942;2023-02-26T03:05:30;95.67;;;56.70;;
15553;SDS011;7878;44.632;10.942;2023-02-26T03:08:01;99.87;;;60.57;;
15553;SDS011;7878;44.632;10.942;2023-02-26T03:10:30;102.77;;;61.23;;
15553;SDS011;7878;44.632;10.942;2023-02-26T03:12:57;104.60;;;60.73;;
15553;SDS011;7878;44.632;10.942;2023-02-26T03:15:34;106.13;;;63.07;;
15553;SDS011;7878;44.632;10.942;2023-02-26T03:18:17;105.37;;;60.37;;
15553;SDS011;7878;44.632;10.942;2023-02-26T03:24:24;91.67;;;55.20;;
15553;SDS011;7878;44.632;10.942;2023-02-26T03:29:15;86.47;;;50.53;;
15553;SDS011;7878;44.632;10.942;2023-02-26T03:31:56;82.53;;;51.23;;
15553;SDS011;7878;44.632;10.942;2023-02-26T03:34:39;88.90;;;52.57;;
15553;SDS011;7878;44.632;10.942;2023-02-26T03:37:26;21.70;;;9.60;;
15553;SDS011;7878;44.632;10.942;2023-02-26T03:40:09;12.77;;;4.50;;
15553;SDS011;7878;44.632;10.942;2023-02-26T03:42:53;10.33;;;3.10;;
15553;SDS011;7878;44.632;10.942;2023-02-26T03:45:27;8.33;;;2.00;;
15553;SDS011;7878;44.632;10.942;2023-02-26T03:47:55;7.73;;;2.23;;
15553;SDS011;7878;44.632;10.942;2023-02-26T03:50:25;7.67;;;2.13;;
15553;SDS011;7878;44.632;10.942;2023-02-26T03:52:57;8.13;;;1.93;;
15553;SDS011;7878;44.632;10.942;2023-02-26T03:55:34;8.03;;;2.40;;
15553;SDS011;7878;44.632;10.942;2023-02-26T03:58:03;4.13;;;1.40;;
15553;SDS011;7878;44.632;10.942;2023-02-26T04:00:29;8.30;;;2.10;;
15553;SDS011;7878;44.632;10.942;2023-02-26T04:05:42;5.80;;;1.40;;
15553;SDS011;7878;44.632;10.942;2023-02-26T04:08:12;6.77;;;1.70;;
15553;SDS011;7878;44.632;10.942;2023-02-26T04:10:51;6.60;;;1.83;;
15553;SDS011;7878;44.632;10.942;2023-02-26T04:13:18;2.63;;;1.03;;
15553;SDS011;7878;44.632;10.942;2023-02-26T04:15:44;6.20;;;1.23;;
15553;SDS011;7878;44.632;10.942;2023-02-26T04:18:09;5.40;;;1.40;;
15553;SDS011;7878;44.632;10.942;2023-02-26T04:20:35;5.47;;;1.47;;
15553;SDS011;7878;44.632;10.942;2023-02-26T04:23:01;2.43;;;0.97;;
15553;SDS011;7878;44.632;10.942;2023-02-26T04:25:26;7.33;;;1.30;;
15553;SDS011;7878;44.632;10.942;2023-02-26T04:27:52;3.13;;;1.00;;
15553;SDS011;7878;44.632;10.942;2023-02-26T04:30:17;5.27;;;1.17;;
15553;SDS011;7878;44.632;10.942;2023-02-26T04:32:43;1.77;;;0.90;;
15553;SDS011;7878;44.632;10.942;2023-02-26T04:35:09;3.77;;;0.83;;
15553;SDS011;7878;44.632;10.942;2023-02-26T04:37:34;2.10;;;0.73;;
15553;SDS011;7878;44.632;10.942;2023-02-26T04:40:00;4.33;;;0.90;;
15553;SDS011;7878;44.632;10.942;2023-02-26T04:42:26;3.70;;;1.07;;
15553;SDS011;7878;44.632;10.942;2023-02-26T04:44:51;3.63;;;1.00;;
15553;SDS011;7878;44.632;10.942;2023-02-26T04:47:17;4.93;;;1.43;;
15553;SDS011;7878;44.632;10.942;2023-02-26T04:49:43;6.00;;;1.00;;
15553;SDS011;7878;44.632;10.942;2023-02-26T04:52:08;3.27;;;0.70;;
15553;SDS011;7878;44.632;10.942;2023-02-26T04:54:34;4.87;;;1.17;;
15553;SDS011;7878;44.632;10.942;2023-02-26T04:56:59;5.47;;;0.90;;
15553;SDS011;7878;44.632;10.942;2023-02-26T04:59:25;2.53;;;0.97;;
15553;SDS011;7878;44.632;10.942;2023-02-26T05:01:51;5.30;;;1.10;;
15553;SDS011;7878;44.632;10.942;2023-02-26T05:04:17;4.87;;;1.50;;
15553;SDS011;7878;44.632;10.942;2023-02-26T05:06:42;3.93;;;1.10;;
15553;SDS011;7878;44.632;10.942;2023-02-26T05:09:08;9.10;;;1.40;;
15553;SDS011;7878;44.632;10.942;2023-02-26T05:11:34;3.63;;;0.93;;
15553;SDS011;7878;44.632;10.942;2023-02-26T05:13:59;8.57;;;1.60;;
15553;SDS011;7878;44.632;10.942;2023-02-26T05:16:25;5.70;;;1.30;;
15553;SDS011;7878;44.632;10.942;2023-02-26T05:18:51;4.07;;;0.93;;
15553;SDS011;7878;44.632;10.942;2023-02-26T05:21:16;2.67;;;1.07;;
15553;SDS011;7878;44.632;10.942;2023-02-26T05:23:42;5.10;;;1.30;;
15553;SDS011;7878;44.632;10.942;2023-02-26T05:26:08;4.17;;;0.90;;
15553;SDS011;7878;44.632;10.942;2023-02-26T05:28:34;2.63;;;0.90;;
15553;SDS011;7878;44.632;10.942;2023-02-26T05:31:00;4.63;;;1.27;;
15553;SDS011;7878;44.632;10.942;2023-02-26T05:33:27;2.80;;;1.03;;
15553;SDS011;7878;44.632;10.942;2023-02-26T05:35:52;3.93;;;1.37;;
15553;SDS011;7878;44.632;10.942;2023-02-26T05:38:18;5.40;;;1.33;;
15553;SDS011;7878;44.632;10.942;2023-02-26T05:40:44;4.07;;;1.07;;
15553;SDS011;7878;44.632;10.942;2023-02-26T05:43:10;3.33;;;0.73;;
15553;SDS011;7878;44.632;10.942;2023-02-26T05:45:35;4.83;;;1.17;;
15553;SDS011;7878;44.632;10.942;2023-02-26T05:48:01;4.60;;;1.23;;
15553;SDS011;7878;44.632;10.942;2023-02-26T05:50:27;3.67;;;1.20;;
15553;SDS011;7878;44.632;10.942;2023-02-26T05:52:54;5.17;;;1.50;;
15553;SDS011;7878;44.632;10.942;2023-02-26T05:55:20;6.30;;;1.53;;
15553;SDS011;7878;44.632;10.942;2023-02-26T05:57:47;6.53;;;1.27;;
15553;SDS011;7878;44.632;10.942;2023-02-26T06:00:12;4.17;;;1.10;;
15553;SDS011;7878;44.632;10.942;2023-02-26T06:02:39;9.93;;;1.50;;
15553;SDS011;7878;44.632;10.942;2023-02-26T06:05:05;6.87;;;1.70;;
15553;SDS011;7878;44.632;10.942;2023-02-26T06:07:32;5.47;;;1.60;;
15553;SDS011;7878;44.632;10.942;2023-02-26T06:09:57;8.03;;;1.53;;
15553;SDS011;7878;44.632;10.942;2023-02-26T06:12:23;6.20;;;1.83;;
15553;SDS011;7878;44.632;10.942;2023-02-26T06:14:49;4.93;;;1.50;;
15553;SDS011;7878;44.632;10.942;2023-02-26T06:17:15;4.13;;;1.00;;
15553;SDS011;7878;44.632;10.942;2023-02-26T06:19:40;5.20;;;1.37;;
15553;SDS011;7878;44.632;10.942;2023-02-26T06:22:07;4.10;;;1.47;;
15553;SDS011;7878;44.632;10.942;2023-02-26T06:24:32;4.17;;;1.07;;
15553;SDS011;7878;44.632;10.942;2023-02-26T06:26:59;6.80;;;1.40;;
15553;SDS011;7878;44.632;10.942;2023-02-26T06:29:24;8.20;;;1.10;;
15553;SDS011;7878;44.632;10.942;2023-02-26T06:31:50;4.87;;;1.30;;
15553;SDS011;7878;44.632;10.942;2023-02-26T06:34:15;5.10;;;1.20;;
15553;SDS011;7878;44.632;10.942;2023-02-26T06:36:41;9.17;;;4.27;;
15553;SDS011;7878;44.632;10.942;2023-02-26T06:39:07;4.10;;;1.10;;
15553;SDS011;7878;44.632;10.942;2023-02-26T06:41:33;5.47;;;1.00;;
15553;SDS011;7878;44.632;10.942;2023-02-26T06:43:59;8.97;;;1.47;;
15553;SDS011;7878;44.632;10.942;2023-02-26T06:46:25;5.13;;;1.50;;
15553;SDS011;7878;44.632;10.942;2023-02-26T06:48:50;8.20;;;1.60;;
15553;SDS011;7878;44.632;10.942;2023-02-26T06:51:16;9.50;;;1.43;;
15553;SDS011;7878;44.632;10.942;2023-02-26T06:53:42;5.00;;;1.50;;
15553;SDS011;7878;44.632;10.942;2023-02-26T06:56:07;3.97;;;0.97;;
15553;SDS011;7878;44.632;10.942;2023-02-26T06:58:33;9.30;;;1.27;;
15553;SDS011;7878;44.632;10.942;2023-02-26T07:00:59;3.30;;;1.10;;
15553;SDS011;7878;44.632;10.942;2023-02-26T07:03:24;8.30;;;1.17;;
15553;SDS011;7878;44.632;10.942;2023-02-26T07:05:50;5.03;;;1.10;;
15553;SDS011;7878;44.632;10.942;2023-02-26T07:08:16;6.83;;;1.80;;
15553;SDS011;7878;44.632;10.942;2023-02-26T07:10:42;6.23;;;1.33;;
15553;SDS011;7878;44.632;10.942;2023-02-26T07:13:10;8.17;;;1.40;;
15553;SDS011;7878;44.632;10.942;2023-02-26T07:15:35;11.97;;;1.43;;
15553;SDS011;7878;44.632;10.942;2023-02-26T07:18:01;6.87;;;1.70;;
15553;SDS011;7878;44.632;10.942;2023-02-26T07:20:27;8.03;;;1.30;;
15553;SDS011;7878;44.632;10.942;2023-02-26T07:22:53;2.37;;;0.90;;
15553;SDS011;7878;44.632;10.942;2023-02-26T07:25:19;7.47;;;1.37;;
15553;SDS011;7878;44.632;10.942;2023-02-26T07:27:45;6.97;;;1.40;;
15553;SDS011;7878;44.632;10.942;2023-02-26T07:30:11;7.10;;;1.33;;
15553;SDS011;7878;44.632;10.942;2023-02-26T07:32:37;6.20;;;1.23;;
15553;SDS011;7878;44.632;10.942;2023-02-26T07:35:03;7.23;;;1.20;;
15553;SDS011;7878;44.632;10.942;2023-02-26T07:37:29;8.10;;;1.60;;
15553;SDS011;7878;44.632;10.942;2023-02-26T07:39:55;3.87;;;1.13;;
15553;SDS011;7878;44.632;10.942;2023-02-26T07:42:21;7.50;;;1.57;;
15553;SDS011;7878;44.632;10.942;2023-02-26T07:44:47;2.83;;;1.20;;
15553;SDS011;7878;44.632;10.942;2023-02-26T07:47:12;4.47;;;1.00;;
15553;SDS011;7878;44.632;10.942;2023-02-26T07:49:38;6.37;;;1.17;;
15553;SDS011;7878;44.632;10.942;2023-02-26T07:52:04;5.33;;;1.47;;
15553;SDS011;7878;44.632;10.942;2023-02-26T07:54:32;2.13;;;1.00;;
15553;SDS011;7878;44.632;10.942;2023-02-26T07:56:58;3.10;;;0.90;;
15553;SDS011;7878;44.632;10.942;2023-02-26T07:59:24;5.67;;;1.10;;
15553;SDS011;7878;44.632;10.942;2023-02-26T08:01:50;6.70;;;1.17;;
15553;SDS011;7878;44.632;10.942;2023-02-26T08:04:15;3.37;;;1.03;;
15553;SDS011;7878;44.632;10.942;2023-02-26T08:06:41;3.10;;;0.87;;
15553;SDS011;7878;44.632;10.942;2023-02-26T08:09:07;1.93;;;0.50;;
15553;SDS011;7878;44.632;10.942;2023-02-26T08:11:32;3.90;;;1.13;;
15553;SDS011;7878;44.632;10.942;2023-02-26T08:14:01;2.90;;;0.90;;
15553;SDS011;7878;44.632;10.942;2023-02-26T08:16:27;4.23;;;1.07;;
15553;SDS011;7878;44.632;10.942;2023-02-26T08:18:52;3.00;;;0.90;;
15553;SDS011;7878;44.632;10.942;2023-02-26T08:21:18;2.87;;;0.60;;
15553;SDS011;7878;44.632;10.942;2023-02-26T08:23:44;4.73;;;1.30;;
15553;SDS011;7878;44.632;10.942;2023-02-26T08:26:10;3.03;;;1.20;;
15553;SDS011;7878;44.632;10.942;2023-02-26T08:28:37;3.67;;;0.80;;
15553;SDS011;7878;44.632;10.942;2023-02-26T08:31:03;2.57;;;0.50;;
15553;SDS011;7878;44.632;10.942;2023-02-26T08:33:29;2.50;;;0.90;;
15553;SDS011;7878;44.632;10.942;2023-02-26T08:35:56;4.17;;;0.80;;
15553;SDS011;7878;44.632;10.942;2023-02-26T08:38:23;5.47;;;0.90;;
15553;SDS011;7878;44.632;10.942;2023-02-26T08:40:49;2.97;;;0.73;;
15553;SDS011;7878;44.632;10.942;2023-02-26T08:43:16;1.77;;;0.90;;
15553;SDS011;7878;44.632;10.942;2023-02-26T08:45:43;2.13;;;0.80;;
15553;SDS011;7878;44.632;10.942;2023-02-26T08:48:09;6.17;;;0.80;;
15553;SDS011;7878;44.632;10.942;2023-02-26T08:50:35;3.30;;;0.77;;
15553;SDS011;7878;44.632;10.942;2023-02-26T08:53:00;3.53;;;1.13;;
15553;SDS011;7878;44.632;10.942;2023-02-26T08:55:26;2.40;;;1.43;;
15553;SDS011;7878;44.632;10.942;2023-02-26T08:57:52;4.57;;;1.03;;
15553;SDS011;7878;44.632;10.942;2023-02-26T09:00:18;2.60;;;0.67;;
15553;SDS011;7878;44.632;10.942;2023-02-26T09:02:44;2.67;;;1.17;;
15553;SDS011;7878;44.632;10.942;2023-02-26T09:05:10;2.00;;;1.03;;
15553;SDS011;7878;44.632;10.942;2023-02-26T09:07:36;4.83;;;1.20;;
15553;SDS011;7878;44.632;10.942;2023-02-26T09:10:03;3.43;;;1.03;;
15553;SDS011;7878;44.632;10.942;2023-02-26T09:12:30;4.87;;;1.30;;
15553;SDS011;7878;44.632;10.942;2023-02-26T09:14:56;2.93;;;0.97;;
15553;SDS011;7878;44.632;10.942;2023-02-26T09:17:23;5.50;;;1.20;;
15553;SDS011;7878;44.632;10.942;2023-02-26T09:19:49;7.60;;;1.90;;
15553;SDS011;7878;44.632;10.942;2023-02-26T09:22:15;8.67;;;1.30;;
15553;SDS011;7878;44.632;10.942;2023-02-26T09:24:41;7.97;;;1.40;;
15553;SDS011;7878;44.632;10.942;2023-02-26T09:27:07;2.87;;;0.80;;
15553;SDS011;7878;44.632;10.942;2023-02-26T09:29:33;2.87;;;1.10;;
15553;SDS011;7878;44.632;10.942;2023-02-26T09:31:58;6.67;;;1.30;;
15553;SDS011;7878;44.632;10.942;2023-02-26T09:34:24;4.83;;;1.27;;
15553;SDS011;7878;44.632;10.942;2023-02-26T09:36:50;2.63;;;0.90;;
15553;SDS011;7878;44.632;10.942;2023-02-26T09:39:15;3.47;;;1.00;;
15553;SDS011;7878;44.632;10.942;2023-02-26T09:42:01;2.93;;;1.00;;
15553;SDS011;7878;44.632;10.942;2023-02-26T09:44:36;3.53;;;0.97;;
15553;SDS011;7878;44.632;10.942;2023-02-26T09:50:09;3.87;;;0.93;;
15553;SDS011;7878;44.632;10.942;2023-02-26T09:52:39;5.97;;;0.87;;
15553;SDS011;7878;44.632;10.942;2023-02-26T09:55:21;2.70;;;0.87;;
15553;SDS011;7878;44.632;10.942;2023-02-26T10:06:20;3.87;;;0.90;;
15553;SDS011;7878;44.632;10.942;2023-02-26T10:14:29;5.93;;;0.90;;
15553;SDS011;7878;44.632;10.942;2023-02-26T10:17:31;2.07;;;0.80;;
15553;SDS011;7878;44.632;10.942;2023-02-26T10:19:55;3.20;;;0.80;;
15553;SDS011;7878;44.632;10.942;2023-02-26T10:22:36;1.87;;;1.10;;
15553;SDS011;7878;44.632;10.942;2023-02-26T10:25:11;2.83;;;0.70;;
15553;SDS011;7878;44.632;10.942;2023-02-26T10:27:50;2.17;;;0.70;;
15553;SDS011;7878;44.632;10.942;2023-02-26T10:35:44;0.60;;;0.53;;
15553;SDS011;7878;44.632;10.942;2023-02-26T10:38:17;0.50;;;0.50;;
15553;SDS011;7878;44.632;10.942;2023-02-26T10:40:49;2.73;;;0.70;;
15553;SDS011;7878;44.632;10.942;2023-02-26T10:43:37;3.13;;;1.37;;
15553;SDS011;7878;44.632;10.942;2023-02-26T10:46:24;2.03;;;0.73;;
15553;SDS011;7878;44.632;10.942;2023-02-26T10:49:13;1.30;;;0.60;;
15553;SDS011;7878;44.632;10.942;2023-02-26T10:51:55;1.23;;;0.50;;
15553;SDS011;7878;44.632;10.942;2023-02-26T10:54:35;5.23;;;0.50;;
15553;SDS011;7878;44.632;10.942;2023-02-26T10:57:08;3.00;;;0.80;;
15553;SDS011;7878;44.632;10.942;2023-02-26T10:59:46;2.27;;;0.60;;
15553;SDS011;7878;44.632;10.942;2023-02-26T11:05:06;0.70;;;0.50;;
15553;SDS011;7878;44.632;10.942;2023-02-26T11:07:39;1.83;;;0.60;;
15553;SDS011;7878;44.632;10.942;2023-02-26T11:10:12;2.77;;;0.97;;
15553;SDS011;7878;44.632;10.942;2023-02-26T11:12:40;4.03;;;0.90;;
15553;SDS011;7878;44.632;10.942;2023-02-26T11:15:11;3.63;;;1.17;;
15553;SDS011;7878;44.632;10.942;2023-02-26T11:17:38;4.93;;;1.07;;
15553;SDS011;7878;44.632;10.942;2023-02-26T11:20:11;2.10;;;0.77;;
15553;SDS011;7878;44.632;10.942;2023-02-26T11:22:51;2.60;;;0.70;;
15553;SDS011;7878;44.632;10.942;2023-02-26T11:25:25;2.07;;;0.80;;
15553;SDS011;7878;44.632;10.942;2023-02-26T11:27:56;1.23;;;0.60;;
15553;SDS011;7878;44.632;10.942;2023-02-26T11:30:29;3.40;;;0.60;;
15553;SDS011;7878;44.632;10.942;2023-02-26T11:33:03;2.70;;;0.60;;
15553;SDS011;7878;44.632;10.942;2023-02-26T11:35:31;3.50;;;1.00;;
15553;SDS011;7878;44.632;10.942;2023-02-26T11:37:58;2.13;;;0.87;;
15553;SDS011;7878;44.632;10.942;2023-02-26T11:43:03;3.40;;;1.23;;
15553;SDS011;7878;44.632;10.942;2023-02-26T11:45:33;5.27;;;1.20;;
15553;SDS011;7878;44.632;10.942;2023-02-26T11:48:04;2.03;;;0.90;;
15553;SDS011;7878;44.632;10.942;2023-02-26T11:50:34;2.33;;;1.00;;
15553;SDS011;7878;44.632;10.942;2023-02-26T11:53:07;4.33;;;1.20;;
15553;SDS011;7878;44.632;10.942;2023-02-26T11:55:43;4.47;;;1.23;;
15553;SDS011;7878;44.632;10.942;2023-02-26T11:58:16;3.53;;;1.80;;
15553;SDS011;7878;44.632;10.942;2023-02-26T12:00:46;4.50;;;1.53;;
15553;SDS011;7878;44.632;10.942;2023-02-26T12:03:23;5.53;;;1.30;;
15553;SDS011;7878;44.632;10.942;2023-02-26T12:05:56;2.27;;;1.20;;
15553;SDS011;7878;44.632;10.942;2023-02-26T12:08:24;4.40;;;1.60;;
15553;SDS011;7878;44.632;10.942;2023-02-26T12:16:42;6.27;;;1.23;;
15553;SDS011;7878;44.632;10.942;2023-02-26T12:19:38;3.20;;;1.20;;
15553;SDS011;7878;44.632;10.942;2023-02-26T12:31:01;6.07;;;1.33;;
15553;SDS011;7878;44.632;10.942;2023-02-26T12:33:44;4.50;;;1.30;;
15553;SDS011;7878;44.632;10.942;2023-02-26T12:47:38;3.67;;;1.20;;
15553;SDS011;7878;44.632;10.942;2023-02-26T12:58:38;7.93;;;1.33;;
15553;SDS011;7878;44.632;10.942;2023-02-26T13:09:56;6.83;;;1.50;;
15553;SDS011;7878;44.632;10.942;2023-02-26T13:12:52;5.27;;;1.37;;
15553;SDS011;7878;44.632;10.942;2023-02-26T13:16:13;4.93;;;1.47;;
15553;SDS011;7878;44.632;10.942;2023-02-26T13:19:35;4.47;;;1.80;;
15553;SDS011;7878;44.632;10.942;2023-02-26T13:24:55;8.63;;;1.83;;
15553;SDS011;7878;44.632;10.942;2023-02-26T13:27:33;6.00;;;1.73;;
15553;SDS011;7878;44.632;10.942;2023-02-26T13:30:08;6.83;;;1.50;;
15553;SDS011;7878;44.632;10.942;2023-02-26T13:32:44;5.83;;;1.60;;
15553;SDS011;7878;44.632;10.942;2023-02-26T13:37:59;3.77;;;1.13;;
15553;SDS011;7878;44.632;10.942;2023-02-26T13:48:29;4.90;;;1.27;;
15553;SDS011;7878;44.632;10.942;2023-02-26T13:51:24;6.80;;;1.43;;
15553;SDS011;7878;44.632;10.942;2023-02-26T13:54:02;6.20;;;1.50;;
15553;SDS011;7878;44.632;10.942;2023-02-26T13:59:02;6.77;;;1.53;;
15553;SDS011;7878;44.632;10.942;2023-02-26T14:01:32;8.03;;;1.87;;
15553;SDS011;7878;44.632;10.942;2023-02-26T14:12:32;9.03;;;1.73;;
15553;SDS011;7878;44.632;10.942;2023-02-26T14:14:41;4.10;;;1.73;;
15553;SDS011;7878;44.632;10.942;2023-02-26T14:19:44;6.63;;;1.97;;
15553;SDS011;7878;44.632;10.942;2023-02-26T14:24:54;7.17;;;1.57;;
15553;SDS011;7878;44.632;10.942;2023-02-26T14:33:25;4.13;;;1.23;;
15553;SDS011;7878;44.632;10.942;2023-02-26T14:35:23;6.17;;;1.60;;
15553;SDS011;7878;44.632;10.942;2023-02-26T14:38:01;5.13;;;1.63;;
15553;SDS011;7878;44.632;10.942;2023-02-26T14:40:28;9.17;;;1.63;;
15553;SDS011;7878;44.632;10.942;2023-02-26T14:42:59;3.20;;;1.83;;
15553;SDS011;7878;44.632;10.942;2023-02-26T14:47:54;6.27;;;1.57;;
15553;SDS011;7878;44.632;10.942;2023-02-26T14:50:23;3.77;;;2.00;;
15553;SDS011;7878;44.632;10.942;2023-02-26T15:14:37;3.13;;;1.47;;
15553;SDS011;7878;44.632;10.942;2023-02-26T15:17:19;5.43;;;1.43;;
15553;SDS011;7878;44.632;10.942;2023-02-26T15:21:02;7.73;;;1.63;;
15553;SDS011;7878;44.632;10.942;2023-02-26T15:25:55;11.57;;;1.90;;
15553;SDS011;7878;44.632;10.942;2023-02-26T15:28:24;4.37;;;1.90;;
15553;SDS011;7878;44.632;10.942;2023-02-26T15:30:53;6.40;;;1.97;;
15553;SDS011;7878;44.632;10.942;2023-02-26T15:33:20;6.10;;;1.50;;
15553;SDS011;7878;44.632;10.942;2023-02-26T15:35:48;9.53;;;2.20;;
15553;SDS011;7878;44.632;10.942;2023-02-26T15:38:16;5.97;;;2.10;;
15553;SDS011;7878;44.632;10.942;2023-02-26T15:40:43;5.43;;;1.73;;
15553;SDS011;7878;44.632;10.942;2023-02-26T15:43:11;5.63;;;2.17;;
15553;SDS011;7878;44.632;10.942;2023-02-26T15:45:41;6.93;;;1.90;;
15553;SDS011;7878;44.632;10.942;2023-02-26T15:48:16;5.67;;;1.53;;
15553;SDS011;7878;44.632;10.942;2023-02-26T15:50:46;3.70;;;1.67;;
15553;SDS011;7878;44.632;10.942;2023-02-26T15:53:20;6.17;;;1.60;;
15553;SDS011;7878;44.632;10.942;2023-02-26T15:55:53;5.30;;;1.60;;
15553;SDS011;7878;44.632;10.942;2023-02-26T15:58:22;6.20;;;1.57;;
15553;SDS011;7878;44.632;10.942;2023-02-26T16:01:22;7.27;;;1.77;;
15553;SDS011;7878;44.632;10.942;2023-02-26T16:03:50;3.13;;;1.50;;
15553;SDS011;7878;44.632;10.942;2023-02-26T16:07:02;3.33;;;2.07;;
15553;SDS011;7878;44.632;10.942;2023-02-26T16:09:16;6.73;;;1.57;;
15553;SDS011;7878;44.632;10.942;2023-02-26T16:11:43;9.63;;;1.93;;
15553;SDS011;7878;44.632;10.942;2023-02-26T16:14:23;6.57;;;2.23;;
15553;SDS011;7878;44.632;10.942;2023-02-26T16:16:53;4.87;;;1.97;;
15553;SDS011;7878;44.632;10.942;2023-02-26T16:19:24;6.00;;;2.03;;
15553;SDS011;7878;44.632;10.942;2023-02-26T16:22:18;7.83;;;1.70;;
15553;SDS011;7878;44.632;10.942;2023-02-26T16:24:49;9.33;;;1.67;;
15553;SDS011;7878;44.632;10.942;2023-02-26T16:27:18;8.33;;;2.00;;
15553;SDS011;7878;44.632;10.942;2023-02-26T16:29:49;8.03;;;2.10;;
15553;SDS011;7878;44.632;10.942;2023-02-26T16:32:17;10.37;;;2.60;;
15553;SDS011;7878;44.632;10.942;2023-02-26T16:34:51;10.00;;;2.67;;
15553;SDS011;7878;44.632;10.942;2023-02-26T16:39:46;5.00;;;2.03;;
15553;SDS011;7878;44.632;10.942;2023-02-26T16:42:20;5.80;;;1.90;;
15553;SDS011;7878;44.632;10.942;2023-02-26T16:45:01;4.27;;;1.50;;
15553;SDS011;7878;44.632;10.942;2023-02-26T16:47:47;5.47;;;1.77;;
15553;SDS011;7878;44.632;10.942;2023-02-26T16:50:19;5.40;;;1.63;;
15553;SDS011;7878;44.632;10.942;2023-02-26T16:52:57;4.33;;;1.73;;
15553;SDS011;7878;44.632;10.942;2023-02-26T17:44:54;5.57;;;1.93;;
15553;SDS011;7878;44.632;10.942;2023-02-26T17:47:22;4.83;;;1.77;;
15553;SDS011;7878;44.632;10.942;2023-02-26T17:49:49;3.63;;;1.77;;
15553;SDS011;7878;44.632;10.942;2023-02-26T17:52:16;4.87;;;1.60;;
15553;SDS011;7878;44.632;10.942;2023-02-26T17:54:42;7.87;;;2.20;;
15553;SDS011;7878;44.632;10.942;2023-02-26T17:57:08;5.70;;;1.97;;
15553;SDS011;7878;44.632;10.942;2023-02-26T17:59:41;4.47;;;1.63;;
15553;SDS011;7878;44.632;10.942;2023-02-26T18:02:24;4.33;;;1.57;;
15553;SDS011;7878;44.632;10.942;2023-02-26T18:04:51;4.50;;;2.13;;
15553;SDS011;7878;44.632;10.942;2023-02-26T18:07:17;5.27;;;2.07;;
15553;SDS011;7878;44.632;10.942;2023-02-26T18:09:44;5.10;;;2.57;;
15553;SDS011;7878;44.632;10.942;2023-02-26T18:12:12;4.60;;;1.53;;
15553;SDS011;7878;44.632;10.942;2023-02-26T18:14:39;5.67;;;2.17;;
15553;SDS011;7878;44.632;10.942;2023-02-26T18:17:06;3.97;;;2.00;;
15553;SDS011;7878;44.632;10.942;2023-02-26T18:19:35;7.20;;;2.10;;
15553;SDS011;7878;44.632;10.942;2023-02-26T18:22:01;7.87;;;2.03;;
15553;SDS011;7878;44.632;10.942;2023-02-26T18:24:26;6.30;;;2.10;;
15553;SDS011;7878;44.632;10.942;2023-02-26T18:26:52;4.83;;;1.80;;
15553;SDS011;7878;44.632;10.942;2023-02-26T18:29:18;4.60;;;2.30;;
15553;SDS011;7878;44.632;10.942;2023-02-26T18:31:44;8.27;;;2.00;;
15553;SDS011;7878;44.632;10.942;2023-02-26T18:34:10;7.30;;;2.40;;
15553;SDS011;7878;44.632;10.942;2023-02-26T18:36:37;6.10;;;2.10;;
15553;SDS011;7878;44.632;10.942;2023-02-26T18:39:04;5.43;;;1.93;;
15553;SDS011;7878;44.632;10.942;2023-02-26T18:41:32;3.83;;;1.90;;
15553;SDS011;7878;44.632;10.942;2023-02-26T18:43:58;2.97;;;1.77;;
15553;SDS011;7878;44.632;10.942;2023-02-26T18:46:24;5.23;;;2.33;;
15553;SDS011;7878;44.632;10.942;2023-02-26T18:48:51;8.13;;;2.10;;
15553;SDS011;7878;44.632;10.942;2023-02-26T18:51:17;8.10;;;2.40;;
15553;SDS011;7878;44.632;10.942;2023-02-26T18:53:43;5.13;;;1.73;;
15553;SDS011;7878;44.632;10.942;2023-02-26T18:56:09;2.27;;;1.63;;